createdAt,value
2023-05-18T00:00:31.718Z,77.18
2023-05-18T00:03:19.471Z,76.84
2023-05-18T00:05:49.633Z,77.19
2023-05-18T00:08:18.916Z,77.27
2023-05-18T00:10:48.070Z,77.04
2023-05-18T00:13:17.518Z,76.19
2023-05-18T00:15:47.206Z,75.34
2023-05-18T00:18:16.648Z,79.18
2023-05-18T00:20:46.229Z,80.15
2023-05-18T00:23:16.815Z,80.02
2023-05-18T00:25:46.259Z,80.41
2023-05-18T00:28:15.996Z,78.70
2023-05-18T00:30:45.602Z,78.75
2023-05-18T00:33:15.340Z,79.47
2023-05-18T00:35:44.777Z,78.11
2023-05-18T00:38:15.720Z,78.09
2023-05-18T00:40:45.442Z,77.44
2023-05-18T00:43:15.478Z,77.68
2023-05-18T00:45:44.829Z,77.10
2023-05-18T00:48:14.503Z,77.45
2023-05-18T00:50:44.384Z,76.63
2023-05-18T00:53:13.804Z,76.75
2023-05-18T00:55:44.004Z,79.83
2023-05-18T00:58:14.457Z,79.04
2023-05-18T01:00:44.035Z,77.50
2023-05-18T01:03:15.770Z,78.06
2023-05-18T01:05:45.412Z,78.95
2023-05-18T01:08:14.636Z,79.33
2023-05-18T01:10:47.536Z,79.58
2023-05-18T01:13:31.694Z,79.48
2023-05-18T01:16:06.973Z,78.18
2023-05-18T01:18:55.159Z,77.40
2023-05-18T01:21:55.614Z,77.33
2023-05-18T01:24:38.536Z,78.20
2023-05-18T01:27:09.869Z,77.65
2023-05-18T01:29:39.490Z,77.33
2023-05-18T01:32:10.021Z,79.14
2023-05-18T01:34:39.768Z,80.17
2023-05-18T01:37:09.290Z,79.26
2023-05-18T01:39:39.734Z,78.22
2023-05-18T01:42:28.463Z,77.54
2023-05-18T01:45:09.699Z,78.12
2023-05-18T01:47:45.440Z,78.37
2023-05-18T01:50:32.270Z,77.71
2023-05-18T01:53:14.117Z,78.83
2023-05-18T01:55:45.921Z,78.77
2023-05-18T01:58:18.363Z,79.16
2023-05-18T02:00:48.596Z,77.74
2023-05-18T02:03:18.343Z,77.01
2023-05-18T02:05:47.726Z,77.76
2023-05-18T02:08:17.887Z,77.95
2023-05-18T02:10:47.762Z,76.99
2023-05-18T02:13:17.848Z,76.11
2023-05-18T02:15:48.149Z,77.16
2023-05-18T02:18:17.545Z,75.96
2023-05-18T02:20:49.354Z,76.07
2023-05-18T02:23:18.514Z,75.29
2023-05-18T02:25:47.905Z,75.25
2023-05-18T02:28:17.249Z,76.34
2023-05-18T02:30:47.009Z,77.59
2023-05-18T02:33:26.752Z,76.87
2023-05-18T02:35:56.734Z,78.37
2023-05-18T02:38:26.002Z,77.71
2023-05-18T02:40:55.693Z,78.38
2023-05-18T02:43:25.507Z,78.07
2023-05-18T02:45:54.979Z,78.07
2023-05-18T02:48:24.453Z,80.08
2023-05-18T02:50:55.466Z,80.60
2023-05-18T02:53:25.205Z,80.26
2023-05-18T02:55:57.480Z,80.67
2023-05-18T02:58:33.840Z,79.68
2023-05-18T03:01:21.323Z,81.77
2023-05-18T03:03:54.567Z,81.75
2023-05-18T03:06:27.045Z,80.60
2023-05-18T03:08:57.855Z,80.28
2023-05-18T03:11:39.754Z,80.24
2023-05-18T03:14:09.370Z,82.22
2023-05-18T03:16:39.040Z,81.53
2023-05-18T03:19:11.284Z,81.31
2023-05-18T03:21:42.960Z,81.09
2023-05-18T03:24:14.763Z,80.82
2023-05-18T03:26:44.893Z,81.71
2023-05-18T03:29:14.374Z,82.01
2023-05-18T03:31:43.813Z,81.01
2023-05-18T03:34:13.236Z,81.02
2023-05-18T03:36:42.990Z,80.64
2023-05-18T03:39:13.347Z,80.90
2023-05-18T03:41:42.734Z,82.60
2023-05-18T03:44:12.123Z,82.69
2023-05-18T03:46:41.938Z,81.53
2023-05-18T03:49:11.593Z,80.18
2023-05-18T03:51:42.126Z,79.77
2023-05-18T03:54:11.738Z,81.02
2023-05-18T03:56:41.423Z,80.03
2023-05-18T03:59:11.012Z,80.23
2023-05-18T04:01:42.667Z,78.34
2023-05-18T04:04:23.784Z,77.18
2023-05-18T04:06:53.160Z,76.29
2023-05-18T04:09:24.097Z,74.36
2023-05-18T04:11:53.235Z,73.39
2023-05-18T04:14:24.948Z,73.16
2023-05-18T04:16:55.593Z,72.28
2023-05-18T04:19:24.945Z,71.14
2023-05-18T04:21:54.894Z,70.19
2023-05-18T04:24:25.272Z,69.04
2023-05-18T04:26:55.249Z,67.85
2023-05-18T04:29:25.740Z,67.75
2023-05-18T04:32:08.255Z,67.41
2023-05-18T04:34:37.850Z,67.20
2023-05-18T04:37:07.408Z,65.03
2023-05-18T04:39:39.733Z,63.59
2023-05-18T04:42:14.912Z,63.93
2023-05-18T04:44:45.607Z,63.52
2023-05-18T04:47:14.878Z,62.38
2023-05-18T04:49:44.184Z,62.05
2023-05-18T04:52:14.117Z,62.03
2023-05-18T04:54:43.712Z,62.17
2023-05-18T04:57:13.411Z,60.87
2023-05-18T04:59:42.857Z,60.87
2023-05-18T05:02:12.191Z,60.48
2023-05-18T05:04:42.155Z,58.69
2023-05-18T05:07:11.586Z,56.45
2023-05-18T05:09:45.556Z,55.17
2023-05-18T05:12:15.326Z,54.04
2023-05-18T05:14:44.369Z,53.51
2023-05-18T05:17:13.761Z,53.67
2023-05-18T05:19:43.291Z,54.07
2023-05-18T05:22:12.632Z,52.67
2023-05-18T05:24:42.025Z,52.76
2023-05-18T05:27:11.483Z,53.25
2023-05-18T05:29:40.966Z,53.54
2023-05-18T05:32:10.679Z,52.21
2023-05-18T05:34:41.176Z,49.96
2023-05-18T05:37:10.461Z,50.57
2023-05-18T05:39:39.907Z,51.31
2023-05-18T05:42:09.683Z,47.68
2023-05-18T05:44:41.096Z,49.11
2023-05-18T05:47:10.458Z,48.68
2023-05-18T05:49:39.663Z,48.90
2023-05-18T05:52:09.103Z,49.79
2023-05-18T05:54:38.398Z,50.42
2023-05-18T05:57:07.724Z,50.12
2023-05-18T05:59:37.068Z,49.86
2023-05-18T06:02:07.290Z,48.40
2023-05-18T06:04:36.937Z,50.58
2023-05-18T06:07:06.606Z,49.64
2023-05-18T06:09:36.220Z,48.51
2023-05-18T06:12:06.066Z,48.67
2023-05-18T06:14:35.846Z,47.22
2023-05-18T06:17:05.797Z,47.45
2023-05-18T06:19:35.130Z,45.86
2023-05-18T06:22:04.917Z,46.84
2023-05-18T06:24:41.187Z,46.99
2023-05-18T06:27:39.354Z,47.63
2023-05-18T06:30:22.600Z,46.35
2023-05-18T06:33:08.944Z,45.93
2023-05-18T06:35:39.733Z,44.68
2023-05-18T06:38:09.622Z,44.61
2023-05-18T06:40:38.685Z,45.66
2023-05-18T06:43:08.543Z,46.15
2023-05-18T06:45:49.264Z,44.60
2023-05-18T06:48:28.912Z,43.92
2023-05-18T06:50:58.238Z,44.71
2023-05-18T06:53:27.825Z,43.18
2023-05-18T06:55:57.595Z,42.57
2023-05-18T06:58:26.826Z,43.76
2023-05-18T07:00:56.593Z,42.64
2023-05-18T07:03:26.223Z,43.49
2023-05-18T07:05:55.257Z,42.95
2023-05-18T07:08:25.497Z,42.31
2023-05-18T07:10:58.274Z,42.56
2023-05-18T07:13:27.976Z,41.83
2023-05-18T07:15:57.147Z,40.91
2023-05-18T07:18:27.308Z,40.31
2023-05-18T07:20:56.497Z,41.98
2023-05-18T07:23:26.686Z,41.00
2023-05-18T07:25:57.877Z,37.27
2023-05-18T07:28:27.346Z,38.48
2023-05-18T07:30:56.559Z,39.02
2023-05-18T07:33:25.812Z,37.21
2023-05-18T07:35:55.246Z,37.44
2023-05-18T07:38:24.697Z,39.46
2023-05-18T07:40:53.966Z,38.39
2023-05-18T07:43:23.155Z,38.39
2023-05-18T07:45:52.640Z,39.00
2023-05-18T07:48:22.005Z,38.73
2023-05-18T07:50:51.828Z,39.03
2023-05-18T07:53:21.075Z,38.91
2023-05-18T07:55:50.503Z,38.82
2023-05-18T07:58:19.923Z,38.22
2023-05-18T08:00:49.516Z,36.33
2023-05-18T08:03:19.446Z,35.32
2023-05-18T08:05:49.153Z,36.13
2023-05-18T08:08:19.135Z,35.47
2023-05-18T08:10:48.812Z,36.48
2023-05-18T08:13:18.100Z,34.72
2023-05-18T08:15:53.258Z,35.51
2023-05-18T08:18:29.165Z,34.84
2023-05-18T08:20:59.070Z,35.72
2023-05-18T08:23:28.529Z,35.45
2023-05-18T08:26:00.424Z,34.50
2023-05-18T08:28:30.746Z,33.53
2023-05-18T08:30:59.907Z,33.94
2023-05-18T08:33:29.733Z,33.31
2023-05-18T08:35:59.366Z,34.77
2023-05-18T08:38:28.856Z,33.98
2023-05-18T08:41:26.896Z,34.39
2023-05-18T08:44:10.350Z,33.97
2023-05-18T08:46:43.578Z,34.19
2023-05-18T08:49:13.864Z,34.59
2023-05-18T08:51:48.237Z,33.95
2023-05-18T08:54:22.938Z,33.83
2023-05-18T08:56:54.120Z,32.78
2023-05-18T08:59:31.923Z,33.34
2023-05-18T09:02:02.049Z,33.22
2023-05-18T09:04:35.033Z,33.46
2023-05-18T09:07:05.754Z,33.65
2023-05-18T09:09:36.135Z,33.10
2023-05-18T09:12:07.300Z,34.08
2023-05-18T09:14:36.423Z,33.31
2023-05-18T09:17:06.206Z,32.99
2023-05-18T09:19:36.341Z,33.46
2023-05-18T09:22:07.056Z,32.77
2023-05-18T09:24:38.382Z,31.83
2023-05-18T09:27:08.317Z,32.65
2023-05-18T10:37:24.193Z,33.97
2023-05-18T10:39:56.365Z,33.22
2023-05-18T10:42:27.002Z,32.98
2023-05-18T10:44:58.228Z,33.50
2023-05-18T10:47:29.520Z,34.19
2023-05-18T10:50:02.973Z,33.78
2023-05-18T10:52:34.251Z,33.89
2023-05-18T10:55:07.142Z,33.88
2023-05-18T10:57:42.823Z,33.55
2023-05-18T11:00:12.714Z,33.98
2023-05-18T11:02:43.299Z,33.52
2023-05-18T11:05:13.435Z,32.51
2023-05-18T11:07:46.663Z,32.41
2023-05-18T11:10:16.195Z,31.85
2023-05-18T11:12:45.741Z,30.10
2023-05-18T11:15:15.064Z,30.91
2023-05-18T11:17:44.288Z,31.58
2023-05-18T11:20:15.210Z,32.52
2023-05-18T11:23:03.833Z,32.32
2023-05-18T11:25:33.168Z,32.30
2023-05-18T11:28:06.431Z,31.11
2023-05-18T11:30:40.817Z,31.21
2023-05-18T11:33:19.463Z,32.71
2023-05-18T11:36:12.178Z,31.69
2023-05-18T11:39:05.324Z,32.15
2023-05-18T11:41:35.550Z,31.42
2023-05-18T11:44:17.488Z,30.63
2023-05-18T11:46:58.960Z,30.02
2023-05-18T11:49:37.765Z,29.85
2023-05-18T11:52:12.648Z,30.25
2023-05-18T11:54:58.060Z,29.96
2023-05-18T11:57:43.230Z,30.44
2023-05-18T12:00:13.768Z,30.61
2023-05-18T12:02:48.544Z,29.91
2023-05-18T12:05:21.081Z,30.79
2023-05-18T12:07:56.689Z,29.76
2023-05-18T12:10:26.400Z,28.88
2023-05-18T12:12:55.558Z,28.54
2023-05-18T12:15:25.651Z,28.89
2023-05-18T12:17:55.071Z,29.21
2023-05-18T12:20:28.718Z,29.24
2023-05-18T12:22:57.643Z,27.18
2023-05-18T12:25:28.342Z,27.86
2023-05-18T12:27:57.652Z,27.77
2023-05-18T12:30:36.209Z,28.36
2023-05-18T12:33:07.360Z,25.82
2023-05-18T12:35:36.613Z,25.63
2023-05-18T12:38:06.549Z,25.60
2023-05-18T12:40:44.861Z,26.87
2023-05-18T12:43:14.020Z,27.21
2023-05-18T12:45:45.333Z,27.30
2023-05-18T12:48:15.393Z,26.72
2023-05-18T12:50:49.754Z,25.94
2023-05-18T12:53:19.318Z,25.71
2023-05-18T12:56:00.060Z,26.53
2023-05-18T12:58:29.447Z,26.76
2023-05-18T13:00:59.017Z,26.37
2023-05-18T13:03:34.198Z,26.57
2023-05-18T13:06:06.530Z,27.76
2023-05-18T13:08:37.276Z,27.72
2023-05-18T13:11:14.225Z,28.37
2023-05-18T13:13:59.663Z,28.76
2023-05-18T13:16:30.669Z,27.96
2023-05-18T13:19:07.069Z,28.54
2023-05-18T13:21:36.437Z,28.45
2023-05-18T13:24:06.105Z,28.74
2023-05-18T13:26:35.264Z,27.44
2023-05-18T13:29:04.324Z,27.41
2023-05-18T13:31:33.471Z,27.85
2023-05-18T13:34:02.681Z,28.17
2023-05-18T13:36:34.172Z,28.33
2023-05-18T13:39:07.564Z,27.53
2023-05-18T13:41:36.707Z,28.32
2023-05-18T13:44:06.185Z,27.90
2023-05-18T13:46:38.137Z,27.94
2023-05-18T13:49:08.099Z,27.54
2023-05-18T13:51:37.903Z,26.62
2023-05-18T13:54:08.103Z,26.29
2023-05-18T13:56:37.088Z,26.93
2023-05-18T13:59:06.222Z,27.68
2023-05-18T14:01:35.418Z,27.13
2023-05-18T14:04:04.431Z,26.88
2023-05-18T14:06:33.520Z,25.75
2023-05-18T14:09:02.814Z,24.57
2023-05-18T14:11:35.146Z,23.91
2023-05-18T14:14:04.385Z,23.61
2023-05-18T14:16:33.756Z,22.23
2023-05-18T14:19:03.950Z,22.73
2023-05-18T14:21:33.170Z,22.78
2023-05-18T14:24:04.157Z,22.51
2023-05-18T14:26:33.717Z,23.98
2023-05-18T14:29:03.559Z,24.34
2023-05-18T14:31:32.640Z,25.17
2023-05-18T14:34:01.985Z,25.59
2023-05-18T14:36:31.414Z,25.76
2023-05-18T14:39:00.436Z,27.44
2023-05-18T14:41:29.596Z,27.27
2023-05-18T14:43:58.926Z,28.01
2023-05-18T14:46:27.985Z,27.94
2023-05-18T14:48:57.326Z,27.55
2023-05-18T14:51:26.594Z,27.46
2023-05-18T14:53:55.680Z,26.68
2023-05-18T14:56:24.620Z,26.59
2023-05-18T14:58:54.045Z,26.40
2023-05-18T15:01:23.482Z,25.53
2023-05-18T15:03:53.053Z,26.23
2023-05-18T15:06:22.250Z,24.42
2023-05-18T15:08:51.221Z,25.18
2023-05-18T15:11:20.961Z,25.28
2023-05-18T15:13:50.370Z,24.71
2023-05-18T15:16:20.113Z,25.64
2023-05-18T15:18:49.320Z,25.42
2023-05-18T15:21:18.629Z,25.40
2023-05-18T15:23:48.200Z,25.18
2023-05-18T15:26:17.380Z,24.76
2023-05-18T15:28:47.392Z,25.12
2023-05-18T15:31:16.643Z,24.09
2023-05-18T15:33:45.703Z,25.04
2023-05-18T15:36:14.881Z,25.60
2023-05-18T15:38:44.250Z,25.40
2023-05-18T15:41:13.355Z,26.12
2023-05-18T15:43:42.679Z,25.75
2023-05-18T15:46:11.767Z,25.83
2023-05-18T15:48:41.291Z,26.63
2023-05-18T15:51:10.965Z,27.91
2023-05-18T15:53:40.429Z,28.13
2023-05-18T15:56:09.835Z,27.54
2023-05-18T15:58:39.123Z,27.94
2023-05-18T16:01:08.250Z,28.38
2023-05-18T16:03:37.569Z,29.12
2023-05-18T16:06:07.060Z,29.49
2023-05-18T16:08:36.183Z,30.54
2023-05-18T16:11:07.259Z,31.16
2023-05-18T16:13:36.252Z,33.32
2023-05-18T16:16:07.113Z,32.80
2023-05-18T16:18:37.542Z,32.64
2023-05-18T16:21:06.887Z,32.92
2023-05-18T16:23:36.119Z,33.16
2023-05-18T16:26:05.957Z,33.85
2023-05-18T16:28:35.537Z,34.59
2023-05-18T16:31:12.483Z,32.98
2023-05-18T16:33:42.349Z,33.34
2023-05-18T16:36:11.667Z,33.50
2023-05-18T16:38:40.869Z,34.31
2023-05-18T16:41:11.124Z,35.56
2023-05-18T16:43:40.535Z,35.96
2023-05-18T16:46:11.098Z,36.44
2023-05-18T16:48:40.373Z,36.54
2023-05-18T16:51:09.908Z,37.30
2023-05-18T16:53:38.891Z,36.24
2023-05-18T16:56:08.044Z,36.94
2023-05-18T16:58:37.310Z,38.59
2023-05-18T17:01:19.489Z,40.05
2023-05-18T17:03:55.896Z,40.72
2023-05-18T17:06:26.328Z,42.06
2023-05-18T17:08:58.440Z,43.74
2023-05-18T17:11:28.077Z,44.70
2023-05-18T17:14:00.085Z,43.88
2023-05-18T17:16:30.565Z,45.78
2023-05-18T17:18:59.963Z,45.13
2023-05-18T17:21:30.795Z,44.08
2023-05-18T17:24:00.177Z,44.54
2023-05-18T17:26:33.500Z,44.36
2023-05-18T17:29:02.597Z,44.92
2023-05-18T17:31:31.763Z,46.00
2023-05-18T17:34:01.257Z,45.76
2023-05-18T17:36:31.235Z,45.76
2023-05-18T17:39:00.294Z,46.59
2023-05-18T17:41:29.417Z,47.71
2023-05-18T17:43:58.734Z,48.05
2023-05-18T17:46:27.977Z,48.30
2023-05-18T17:48:57.024Z,48.32
2023-05-18T17:51:26.228Z,47.97
2023-05-18T17:53:56.748Z,48.27
2023-05-18T17:56:28.209Z,49.19
2023-05-18T17:58:59.028Z,48.61
2023-05-18T18:01:29.167Z,48.09
2023-05-18T18:03:58.785Z,47.84
2023-05-18T18:06:28.393Z,47.73
2023-05-18T18:08:59.140Z,47.57
2023-05-18T18:11:28.648Z,48.74
2023-05-18T18:13:57.736Z,47.43
2023-05-18T18:16:27.012Z,47.11
2023-05-18T18:18:56.798Z,46.78
2023-05-18T18:21:25.952Z,46.54
2023-05-18T18:23:55.414Z,46.28
2023-05-18T18:26:24.820Z,46.13
2023-05-18T18:28:54.103Z,45.99
2023-05-18T18:31:23.447Z,46.02
2023-05-18T18:33:52.762Z,45.92
2023-05-18T18:36:23.264Z,45.58
2023-05-18T18:38:54.261Z,45.87
2023-05-18T18:41:23.435Z,48.71
2023-05-18T18:43:54.301Z,54.66
2023-05-18T18:46:23.711Z,59.04
2023-05-18T18:48:52.976Z,61.71
2023-05-18T18:51:22.434Z,64.11
2023-05-18T18:53:51.876Z,67.44
2023-05-18T18:56:24.229Z,68.25
2023-05-18T18:58:53.464Z,69.50
2023-05-18T19:01:23.072Z,71.44
2023-05-18T19:03:55.925Z,72.23
2023-05-18T19:06:26.279Z,72.60
2023-05-18T19:08:58.615Z,73.73
2023-05-18T19:11:27.940Z,73.96
2023-05-18T19:13:57.312Z,74.29
2023-05-18T19:16:26.721Z,75.49
2023-05-18T19:18:55.976Z,75.27
2023-05-18T19:21:26.278Z,76.09
2023-05-18T19:23:55.445Z,76.51
2023-05-18T19:26:25.853Z,75.98
2023-05-18T19:28:55.104Z,76.84
2023-05-18T19:31:25.503Z,76.63
2023-05-18T19:33:55.143Z,77.20
2023-05-18T19:36:24.431Z,77.13
2023-05-18T19:38:53.714Z,77.79
2023-05-18T19:41:24.827Z,79.42
2023-05-18T19:43:54.156Z,79.36
2023-05-18T19:46:23.391Z,80.64
2023-05-18T19:48:55.602Z,80.81
2023-05-18T19:51:25.742Z,80.49
2023-05-18T19:53:55.006Z,79.94
2023-05-18T19:56:24.101Z,81.07
2023-05-18T19:58:53.990Z,81.70
2023-05-18T20:01:24.901Z,81.28
2023-05-18T20:03:54.443Z,81.88
2023-05-18T20:06:23.892Z,81.99
2023-05-18T20:08:53.124Z,81.92
2023-05-18T20:11:22.653Z,81.09
2023-05-18T20:13:51.972Z,80.71
2023-05-18T20:16:21.499Z,81.41
2023-05-18T20:18:52.199Z,83.12
2023-05-18T20:21:21.324Z,82.79
2023-05-18T20:23:50.542Z,83.44
2023-05-18T20:26:19.760Z,83.49
2023-05-18T20:28:49.538Z,83.77
2023-05-18T20:31:18.474Z,83.39
2023-05-18T20:33:47.640Z,83.37
2023-05-18T20:36:16.664Z,83.50
2023-05-18T20:38:46.062Z,83.80
2023-05-18T20:41:18.353Z,84.70
2023-05-18T20:43:48.684Z,85.24
2023-05-18T20:46:20.710Z,84.34
2023-05-18T20:48:52.720Z,85.59
2023-05-18T20:51:23.473Z,85.85
2023-05-18T20:53:52.677Z,84.81
2023-05-18T20:56:22.143Z,85.08
2023-05-18T20:58:51.501Z,84.69
2023-05-18T21:01:21.703Z,85.56
2023-05-18T21:03:51.161Z,84.70
2023-05-18T21:06:20.494Z,84.60
2023-05-18T21:08:49.585Z,85.08
2023-05-18T21:11:19.946Z,85.08
2023-05-18T21:13:49.258Z,85.04
2023-05-18T21:16:18.614Z,84.84
2023-05-18T21:18:47.814Z,86.44
2023-05-18T21:21:17.114Z,86.54
2023-05-18T21:23:46.905Z,86.25
2023-05-18T21:26:16.590Z,86.67
2023-05-18T21:28:46.204Z,87.64
2023-05-18T21:31:15.402Z,86.90
2023-05-18T21:33:48.202Z,87.81
2023-05-18T21:36:19.870Z,87.04
2023-05-18T21:38:48.966Z,86.31
2023-05-18T21:41:18.200Z,86.90
2023-05-18T21:43:47.328Z,88.69
2023-05-18T21:46:16.539Z,88.25
2023-05-18T21:48:45.792Z,88.22
2023-05-18T21:51:15.154Z,88.38
2023-05-18T21:53:44.510Z,88.70
2023-05-18T21:56:14.194Z,89.40
2023-05-18T21:58:43.484Z,89.17
2023-05-18T22:01:12.653Z,88.91
2023-05-18T22:03:41.817Z,88.76
2023-05-18T22:06:11.026Z,88.51
2023-05-18T22:08:41.033Z,87.95
2023-05-18T22:11:10.357Z,88.91
2023-05-18T22:13:40.582Z,88.50
2023-05-18T22:16:09.688Z,88.70
2023-05-18T22:18:38.917Z,89.41
2023-05-18T22:21:08.267Z,90.99
2023-05-18T22:23:39.146Z,89.98
2023-05-18T22:26:08.556Z,90.44
2023-05-18T22:28:37.548Z,90.79
2023-05-18T22:31:06.896Z,90.08
2023-05-18T22:33:35.944Z,90.95
2023-05-18T22:36:05.636Z,91.72
2023-05-18T22:38:34.797Z,91.48
2023-05-18T22:41:03.925Z,91.69
2023-05-18T22:43:33.392Z,91.38
2023-05-18T22:46:02.796Z,92.06
2023-05-18T22:48:34.922Z,92.46
2023-05-18T22:51:04.998Z,92.01
2023-05-18T22:53:34.329Z,93.00
2023-05-18T22:56:03.866Z,93.57
2023-05-18T22:58:34.066Z,92.67
2023-05-18T23:01:03.402Z,93.32
2023-05-18T23:03:32.581Z,94.02
2023-05-18T23:06:03.363Z,93.96
2023-05-18T23:08:36.951Z,92.59
2023-05-18T23:11:07.102Z,92.59
2023-05-18T23:13:37.833Z,92.59
2023-05-18T23:16:10.668Z,92.61
2023-05-18T23:18:39.971Z,92.85
2023-05-18T23:21:09.469Z,93.56
2023-05-18T23:23:38.798Z,92.57
2023-05-18T23:26:09.365Z,93.45
2023-05-18T23:28:38.774Z,94.33
2023-05-18T23:31:08.508Z,95.44
2023-05-18T23:33:38.254Z,95.28
2023-05-18T23:36:08.506Z,94.89
2023-05-18T23:38:41.123Z,93.98
2023-05-18T23:41:11.319Z,94.67
2023-05-18T23:43:41.070Z,96.84
2023-05-18T23:46:11.128Z,94.30
2023-05-18T23:48:40.993Z,95.17
2023-05-18T23:51:16.919Z,95.27
2023-05-18T23:53:47.425Z,96.30
2023-05-18T23:56:17.683Z,95.93
2023-05-18T23:58:47.880Z,95.64
